Time;durP1;ratioP1;P1;durP2;ratioP2;P2;SDS_P1;SDS_P2;PMS_P1;PMS_P2;Temp;Humidity;BMP_temperature;BMP_pressure;BME280_temperature;BME280_humidity;BME280_pressure;Samples;Min_cycle;Max_cycle;Signal;HPM_P1;HPM_P2
2022/08/05 00:00:39;;;;;;;;;;;;;;;25.29;52.93;100858.06;7406425;19;1519;-40
2022/08/05 00:03:08;;;;;;;;;;;;;;;25.26;53.02;100838.63;7404074;19;1573;-40
2022/08/05 00:05:38;;;;;;;;;;;;;;;25.33;52.91;100840.47;7406676;19;1463;-39
2022/08/05 00:08:08;;;;;;;;;;;;;;;25.26;53.12;100825.94;7403078;19;1870;-39
2022/08/05 00:10:36;;;;;;;;;;;;;;;25.17;53.11;100843.22;7406778;19;1675;-40
2022/08/05 00:13:04;;;;;;;;;;;;;;;25.13;53.06;100836.47;7403911;19;1468;-40
2022/08/05 00:15:32;;;;;;;;;;;;;;;25.12;53.02;100829.34;7407669;19;1563;-40
2022/08/05 00:18:01;;;;;;;;;;;;;;;25.11;53.08;100833.06;7405160;19;1695;-40
2022/08/05 00:20:29;;;;;;;;;;;;;;;25.14;53.65;100828.13;7406099;19;1706;-40
2022/08/05 00:23:00;;;;;;;;;;;;;;;25.15;53.52;100840.66;7405727;19;1456;-40
2022/08/05 00:25:28;;;;;;;;;;;;;;;25.10;53.49;100831.38;7405523;19;1603;-40
2022/08/05 00:27:57;;;;;;;;;;;;;;;25.12;53.47;100829.34;7404012;19;1861;-40
2022/08/05 00:30:25;;;;;;;;;;;;;;;25.11;53.44;100824.94;7406626;19;1569;-40
2022/08/05 00:32:53;;;;;;;;;;;;;;;24.97;53.65;100830.06;7404533;19;1543;-40
2022/08/05 00:35:21;;;;;;;;;;;;;;;24.95;53.31;100824.00;7404963;19;1753;-40
2022/08/05 00:37:50;;;;;;;;;;;;;;;24.95;53.12;100826.69;7404908;19;1426;-40
2022/08/05 00:40:21;;;;;;;;;;;;;;;25.05;53.01;100831.91;7405027;19;1575;-41
2022/08/05 00:42:50;;;;;;;;;;;;;;;24.99;52.99;100817.22;7404379;19;1911;-40
2022/08/05 00:45:18;;;;;;;;;;;;;;;24.95;53.14;100818.59;7405572;19;1503;-40
2022/08/05 00:47:46;;;;;;;;;;;;;;;25.10;52.88;100823.25;7402383;19;1861;-40
2022/08/05 00:50:14;;;;;;;;;;;;;;;25.04;53.01;100816.69;7404763;19;1604;-40
2022/08/05 00:52:43;;;;;;;;;;;;;;;24.95;53.34;100821.28;7404795;19;2084;-40
2022/08/05 00:55:11;;;;;;;;;;;;;;;24.87;53.36;100824.03;7403021;19;1683;-40
2022/08/05 00:57:42;;;;;;;;;;;;;;;24.85;53.39;100814.38;7404968;19;1507;-39
2022/08/05 01:00:11;;;;;;;;;;;;;;;24.89;53.28;100803.06;7405996;19;1588;-40
2022/08/05 01:02:40;;;;;;;;;;;;;;;24.93;53.08;100809.78;7401753;19;1677;-39
2022/08/05 01:05:08;;;;;;;;;;;;;;;24.95;52.68;100810.47;7403328;19;1689;-40
2022/08/05 01:07:37;;;;;;;;;;;;;;;24.91;53.11;100822.66;7402958;19;1852;-39
2022/08/05 01:10:07;;;;;;;;;;;;;;;24.92;53.15;100818.91;7405045;19;1537;-40
2022/08/05 01:12:36;;;;;;;;;;;;;;;24.88;52.72;100816.75;7402813;19;1663;-39
2022/08/05 01:15:08;;;;;;;;;;;;;;;24.89;52.89;100816.56;7404434;19;1758;-40
2022/08/05 01:17:39;;;;;;;;;;;;;;;24.91;52.89;100801.00;7402389;19;1631;-39
2022/08/05 01:20:20;;;;;;;;;;;;;;;24.98;52.72;100822.78;7402621;19;1681;-40
2022/08/05 01:22:57;;;;;;;;;;;;;;;24.94;52.69;100816.88;7403377;19;1516;-39
2022/08/05 01:25:42;;;;;;;;;;;;;;;24.82;52.87;100812.84;7403183;19;1702;-39
2022/08/05 01:28:18;;;;;;;;;;;;;;;24.74;52.77;100821.00;7401145;19;1851;-40
2022/08/05 01:30:52;;;;;;;;;;;;;;;24.70;53.02;100815.09;7404396;19;1414;-40
2022/08/05 01:33:23;;;;;;;;;;;;;;;24.74;52.93;100816.41;7403043;19;1564;-40
2022/08/05 01:35:52;;;;;;;;;;;;;;;24.82;52.54;100802.03;7402686;19;1596;-39
2022/08/05 01:38:21;;;;;;;;;;;;;;;24.80;52.53;100810.31;7402944;19;1501;-39
2022/08/05 01:40:50;;;;;;;;;;;;;;;24.80;52.31;100801.38;7403217;19;1532;-39
2022/08/05 01:43:22;;;;;;;;;;;;;;;24.74;52.60;100816.41;7402457;19;1645;-39
2022/08/05 01:45:50;;;;;;;;;;;;;;;24.74;52.37;100815.59;7404172;19;1633;-39
2022/08/05 01:48:19;;;;;;;;;;;;;;;24.72;52.74;100831.13;7401100;19;1858;-40
2022/08/05 01:50:48;;;;;;;;;;;;;;;24.78;52.12;100816.94;7402986;19;1935;-39
2022/08/05 01:53:18;;;;;;;;;;;;;;;24.84;51.94;100824.34;7404738;19;1516;-39
2022/08/05 01:55:47;;;;;;;;;;;;;;;24.85;52.26;100828.75;7402898;19;1508;-40
2022/08/05 01:58:19;;;;;;;;;;;;;;;24.83;52.21;100813.69;7401818;19;1676;-40
2022/08/05 02:00:52;;;;;;;;;;;;;;;24.79;52.13;100805.94;7395581;19;3506;-52
2022/08/05 02:03:22;;;;;;;;;;;;;;;24.68;52.66;100805.47;7399812;19;1504;-52
2022/08/05 02:05:52;;;;;;;;;;;;;;;24.81;52.30;100814.72;7404613;19;1327;-52
2022/08/05 02:08:20;;;;;;;;;;;;;;;24.78;52.39;100812.34;7401673;19;1849;-52
2022/08/05 02:10:50;;;;;;;;;;;;;;;24.80;52.40;100817.59;7405764;19;1309;-52
2022/08/05 02:13:20;;;;;;;;;;;;;;;24.83;52.21;100814.56;7406462;19;1371;-51
2022/08/05 02:15:55;;;;;;;;;;;;;;;24.80;52.23;100804.06;7406155;19;1597;-52
2022/08/05 02:18:26;;;;;;;;;;;;;;;24.76;52.26;100821.66;7404815;19;1554;-52
2022/08/05 02:20:55;;;;;;;;;;;;;;;24.77;52.11;100823.34;7404037;19;1735;-52
2022/08/05 02:23:25;;;;;;;;;;;;;;;24.74;52.03;100810.19;7404221;19;1308;-52
2022/08/05 02:25:55;;;;;;;;;;;;;;;24.80;51.97;100836.53;7403853;19;1284;-52
2022/08/05 02:28:25;;;;;;;;;;;;;;;24.65;51.93;100820.19;7403109;19;1858;-52
2022/08/05 02:30:59;;;;;;;;;;;;;;;24.73;51.92;100827.41;7405367;19;1356;-52
2022/08/05 02:33:28;;;;;;;;;;;;;;;24.77;52.13;100826.03;7403658;19;1468;-52
2022/08/05 02:35:59;;;;;;;;;;;;;;;24.80;52.06;100825.72;7404129;19;1684;-52
2022/08/05 02:38:30;;;;;;;;;;;;;;;24.67;52.10;100830.81;7404532;19;1407;-50
2022/08/05 02:41:00;;;;;;;;;;;;;;;24.65;52.44;100819.31;7405372;19;1289;-52
2022/08/05 02:43:29;;;;;;;;;;;;;;;24.69;52.12;100823.34;7403813;19;1411;-50
2022/08/05 02:46:00;;;;;;;;;;;;;;;24.67;52.20;100830.81;7404977;19;1764;-52
2022/08/05 02:48:29;;;;;;;;;;;;;;;24.65;52.43;100830.13;7403368;19;1859;-52
2022/08/05 02:51:00;;;;;;;;;;;;;;;24.67;52.48;100830.81;7403575;19;1657;-52
2022/08/05 02:53:28;;;;;;;;;;;;;;;24.64;52.47;100825.75;7403525;19;1412;-52
2022/08/05 02:55:57;;;;;;;;;;;;;;;24.71;52.53;100833.00;7403479;19;1361;-52
2022/08/05 02:58:26;;;;;;;;;;;;;;;24.72;52.25;100826.56;7403852;19;1462;-64
2022/08/05 03:00:56;;;;;;;;;;;;;;;24.73;51.99;100824.69;7405229;19;1332;-64
2022/08/05 03:03:29;;;;;;;;;;;;;;;24.71;52.26;100826.72;7403408;19;1519;-63
2022/08/05 03:05:58;;;;;;;;;;;;;;;24.70;52.13;100841.28;7403912;19;1533;-64
2022/08/05 03:08:27;;;;;;;;;;;;;;;24.59;52.14;100840.63;7401546;19;1858;-65
2022/08/05 03:10:55;;;;;;;;;;;;;;;24.55;52.53;100836.59;7405158;19;1294;-65
2022/08/05 03:13:24;;;;;;;;;;;;;;;24.62;52.08;100844.84;7403154;19;1471;-64
2022/08/05 03:15:52;;;;;;;;;;;;;;;24.59;52.47;100855.97;7404158;19;1427;-65
2022/08/05 03:18:20;;;;;;;;;;;;;;;24.61;52.58;100853.97;7404101;19;1464;-64
2022/08/05 03:20:51;;;;;;;;;;;;;;;24.69;52.18;100850.41;7411127;19;1725;-63
2022/08/05 03:23:20;;;;;;;;;;;;;;;24.75;51.81;100836.19;7408117;19;1348;-60
2022/08/05 03:25:48;;;;;;;;;;;;;;;24.80;52.27;100841.94;7411171;19;1463;-64
2022/08/05 03:28:17;;;;;;;;;;;;;;;24.74;52.16;100842.63;7409255;19;1838;-61
2022/08/05 03:30:46;;;;;;;;;;;;;;;24.65;52.17;100833.69;7413567;19;1405;-65
2022/08/05 03:33:15;;;;;;;;;;;;;;;24.69;52.30;100845.84;7411575;19;1633;-65
2022/08/05 03:35:43;;;;;;;;;;;;;;;24.57;52.52;100848.06;7411209;19;1684;-64
2022/08/05 03:38:15;;;;;;;;;;;;;;;24.64;52.30;100847.38;7410623;19;1506;-64
2022/08/05 03:40:43;;;;;;;;;;;;;;;24.53;52.41;100841.31;7411050;19;1531;-64
2022/08/05 03:43:12;;;;;;;;;;;;;;;24.56;52.46;100850.94;7410567;19;1598;-65
2022/08/05 03:45:41;;;;;;;;;;;;;;;24.57;52.11;100849.91;7411820;19;1642;-64
2022/08/05 03:48:09;;;;;;;;;;;;;;;24.58;52.19;100836.22;7408204;19;1855;-64
2022/08/05 03:50:42;;;;;;;;;;;;;;;24.58;52.39;100855.16;7411216;19;1514;-65
2022/08/05 03:53:13;;;;;;;;;;;;;;;24.64;52.25;100850.09;7409488;19;1474;-64
2022/08/05 03:55:46;;;;;;;;;;;;;;;24.61;52.32;100852.13;7409083;19;1530;-65
2022/08/05 03:58:18;;;;;;;;;;;;;;;24.67;52.28;100858.72;7405914;19;1695;-64
2022/08/05 04:00:47;;;;;;;;;;;;;;;24.66;52.06;100857.00;7405237;19;1724;-65
2022/08/05 04:03:17;;;;;;;;;;;;;;;24.66;52.23;100837.25;7403132;19;1669;-64
2022/08/05 04:05:46;;;;;;;;;;;;;;;24.72;52.24;100860.88;7407678;19;1581;-65
2022/08/05 04:08:15;;;;;;;;;;;;;;;24.74;52.47;100853.44;7407028;19;1856;-64
2022/08/05 04:10:47;;;;;;;;;;;;;;;24.71;52.36;100843.81;7407394;19;1530;-65
2022/08/05 04:13:17;;;;;;;;;;;;;;;24.77;51.92;100859.38;7409232;19;1589;-65
2022/08/05 04:15:45;;;;;;;;;;;;;;;24.64;52.68;100852.78;7410332;19;1867;-63
2022/08/05 04:18:13;;;;;;;;;;;;;;;24.70;52.24;100849.41;7409510;19;1641;-65
2022/08/05 04:20:42;;;;;;;;;;;;;;;24.64;52.24;100841.97;7408324;19;1535;-65
2022/08/05 04:23:11;;;;;;;;;;;;;;;24.69;52.34;100855.81;7409066;19;1281;-64
2022/08/05 04:25:40;;;;;;;;;;;;;;;24.74;52.25;100837.22;7409194;19;1434;-65
2022/08/05 04:28:10;;;;;;;;;;;;;;;24.83;52.03;100829.94;7410284;19;1863;-65
2022/08/05 04:30:39;;;;;;;;;;;;;;;24.85;52.21;100833.28;7410193;19;947;-64
2022/08/05 04:33:07;;;;;;;;;;;;;;;24.94;52.21;100838.53;7407937;19;1641;-65
2022/08/05 04:35:35;;;;;;;;;;;;;;;24.91;52.27;100848.84;7409620;19;1456;-65
2022/08/05 04:38:04;;;;;;;;;;;;;;;24.95;52.11;100839.38;7408427;19;1522;-64
2022/08/05 04:40:34;;;;;;;;;;;;;;;24.93;52.14;100831.44;7407705;19;1412;-64
2022/08/05 04:43:03;;;;;;;;;;;;;;;24.77;52.72;100834.16;7406474;19;1427;-64
2022/08/05 04:45:34;;;;;;;;;;;;;;;24.94;52.30;100843.94;7410909;19;1432;-64
2022/08/05 04:48:07;;;;;;;;;;;;;;;25.05;51.96;100836.47;7407920;19;1859;-64
2022/08/05 04:50:40;;;;;;;;;;;;;;;25.13;51.73;100825.63;7408845;19;1613;-65
2022/08/05 04:53:09;;;;;;;;;;;;;;;25.05;51.61;100840.03;7408394;19;1518;-64
2022/08/05 04:55:37;;;;;;;;;;;;;;;25.18;51.76;100847.59;7408429;19;1537;-65
2022/08/05 04:58:06;;;;;;;;;;;;;;;25.22;51.93;100819.19;7407681;19;1487;-64
2022/08/05 05:00:38;;;;;;;;;;;;;;;25.15;52.22;100837.13;7409170;19;1448;-65
2022/08/05 05:03:07;;;;;;;;;;;;;;;25.15;52.40;100831.72;7405886;19;1818;-65
2022/08/05 05:05:36;;;;;;;;;;;;;;;25.27;51.49;100824.94;7408115;19;1352;-65
2022/08/05 05:08:04;;;;;;;;;;;;;;;25.35;51.61;100822.19;7407524;19;1837;-65
2022/08/05 05:10:34;;;;;;;;;;;;;;;25.39;51.72;100842.47;7407831;19;1523;-65
2022/08/05 05:13:04;;;;;;;;;;;;;;;25.30;52.14;100826.44;7407621;19;1636;-65
2022/08/05 05:15:32;;;;;;;;;;;;;;;25.35;51.83;100814.06;7406534;19;1253;-64
2022/08/05 05:18:03;;;;;;;;;;;;;;;25.42;51.97;100829.59;7407134;19;1395;-65
2022/08/05 05:20:32;;;;;;;;;;;;;;;25.34;51.97;100823.19;7407518;19;1681;-65
2022/08/05 05:23:03;;;;;;;;;;;;;;;25.38;52.22;100829.94;7405502;19;1330;-64
2022/08/05 05:25:32;;;;;;;;;;;;;;;25.34;52.18;100801.53;7407449;19;1641;-65
2022/08/05 05:28:00;;;;;;;;;;;;;;;25.36;52.58;100810.31;7406446;19;1856;-65
2022/08/05 05:30:29;;;;;;;;;;;;;;;25.44;52.13;100814.00;7406813;19;1510;-65
2022/08/05 05:32:57;;;;;;;;;;;;;;;25.46;52.19;100807.38;7404524;19;1586;-64
2022/08/05 05:35:28;;;;;;;;;;;;;;;25.49;51.96;100806.22;7407354;19;1641;-65
2022/08/05 05:37:58;;;;;;;;;;;;;;;25.51;51.94;100815.00;7405240;19;1815;-65
2022/08/05 05:40:28;;;;;;;;;;;;;;;25.40;52.32;100808.94;7403723;19;1547;-64
2022/08/05 05:42:56;;;;;;;;;;;;;;;25.19;53.23;100814.94;7400162;19;1364;-64
2022/08/05 05:45:25;;;;;;;;;;;;;;;25.26;53.38;100815.09;7404914;19;1735;-64
2022/08/05 05:47:53;;;;;;;;;;;;;;;25.20;53.42;100813.06;7402160;19;1680;-64
2022/08/05 05:50:22;;;;;;;;;;;;;;;25.29;53.22;100812.06;7404836;19;1720;-65
2022/08/05 05:52:53;;;;;;;;;;;;;;;25.33;53.26;100810.69;7404564;19;1511;-64
2022/08/05 05:55:22;;;;;;;;;;;;;;;25.34;53.41;100822.34;7406521;19;1518;-64
2022/08/05 05:57:50;;;;;;;;;;;;;;;25.39;53.54;100817.25;7406124;19;1625;-65
2022/08/05 06:00:19;;;;;;;;;;;;;;;25.42;53.34;100802.53;7407484;19;1602;-53
2022/08/05 06:02:48;;;;;;;;;;;;;;;25.54;52.93;100818.16;7404112;19;1669;-53
2022/08/05 06:05:17;;;;;;;;;;;;;;;25.54;52.87;100801.09;7405366;19;1665;-53
2022/08/05 06:07:48;;;;;;;;;;;;;;;25.55;53.22;100792.78;7405029;19;1507;-53
2022/08/05 06:10:19;;;;;;;;;;;;;;;25.67;52.92;100817.63;7404089;19;1842;-53
2022/08/05 06:12:48;;;;;;;;;;;;;;;25.66;52.65;100810.50;7404847;19;1641;-53
2022/08/05 06:15:16;;;;;;;;;;;;;;;25.70;53.17;100800.16;7406522;19;1455;-53
2022/08/05 06:17:44;;;;;;;;;;;;;;;25.76;53.06;100826.50;7403648;19;1751;-53
2022/08/05 06:20:13;;;;;;;;;;;;;;;25.76;53.04;100800.25;7404622;19;1732;-53
2022/08/05 06:22:42;;;;;;;;;;;;;;;25.78;52.94;100809.09;7404091;19;1637;-53
2022/08/05 06:25:12;;;;;;;;;;;;;;;25.83;53.54;100813.13;7404226;19;1747;-51
2022/08/05 06:27:43;;;;;;;;;;;;;;;25.85;52.99;100808.38;7404811;19;1460;-51
2022/08/05 06:30:14;;;;;;;;;;;;;;;25.88;53.17;100799.84;7404175;19;1871;-51
2022/08/05 06:32:43;;;;;;;;;;;;;;;25.91;53.11;100815.81;7404481;19;1724;-53
2022/08/05 06:35:12;;;;;;;;;;;;;;;25.87;53.43;100803.59;7403691;19;1752;-50
2022/08/05 06:37:40;;;;;;;;;;;;;;;25.89;53.16;100799.69;7404673;19;1720;-52
2022/08/05 06:40:09;;;;;;;;;;;;;;;25.95;53.57;100809.00;7404346;19;1643;-51
2022/08/05 06:42:38;;;;;;;;;;;;;;;25.86;53.82;100799.19;7403884;19;1671;-52
2022/08/05 06:45:09;;;;;;;;;;;;;;;25.83;53.97;100800.41;7404796;19;1629;-50
2022/08/05 06:47:37;;;;;;;;;;;;;;;25.83;53.94;100794.16;7404581;19;1610;-53
2022/08/05 06:50:06;;;;;;;;;;;;;;;25.83;53.63;100799.56;7402398;19;1855;-52
2022/08/05 06:52:35;;;;;;;;;;;;;;;25.85;54.15;100798.38;7401922;19;1801;-52
2022/08/05 06:55:03;;;;;;;;;;;;;;;25.84;53.98;100795.81;7403887;19;1600;-55
2022/08/05 06:57:31;;;;;;;;;;;;;;;25.85;53.93;100800.22;7404525;19;1538;-57
2022/08/05 07:00:02;;;;;;;;;;;;;;;25.81;54.00;100794.31;7404482;19;1645;-52
2022/08/05 07:02:33;;;;;;;;;;;;;;;25.82;53.91;100787.03;7402177;19;1425;-57
2022/08/05 07:05:01;;;;;;;;;;;;;;;25.86;54.24;100799.19;7403260;19;1191;-57
2022/08/05 07:07:29;;;;;;;;;;;;;;;25.84;54.16;100801.25;7403490;19;1443;-58
2022/08/05 07:09:58;;;;;;;;;;;;;;;25.83;54.50;100794.16;7403565;19;1849;-52
2022/08/05 07:17:53;;;;;;;;;;;;;;;25.82;54.27;100806.84;7402773;19;1754;-52
2022/08/05 07:20:22;;;;;;;;;;;;;;;25.79;54.74;100804.50;7403850;19;1210;-52
2022/08/05 07:22:50;;;;;;;;;;;;;;;25.83;54.44;100799.56;7403024;19;1721;-52
2022/08/05 07:25:18;;;;;;;;;;;;;;;25.82;54.37;100792.47;7403516;19;1697;-53
2022/08/05 07:27:47;;;;;;;;;;;;;;;25.86;54.74;100813.56;7403929;19;1586;-52
2022/08/05 07:30:15;;;;;;;;;;;;;;;25.80;54.77;100812.47;7403582;19;1905;-52
2022/08/05 07:32:44;;;;;;;;;;;;;;;25.84;54.56;100801.25;7404382;19;1395;-52
2022/08/05 07:35:15;;;;;;;;;;;;;;;25.80;54.62;100795.34;7404023;19;1764;-52
2022/08/05 07:37:43;;;;;;;;;;;;;;;25.81;54.87;100791.63;7403055;19;1789;-52
2022/08/05 07:40:13;;;;;;;;;;;;;;;25.86;54.76;100805.44;7401378;19;1681;-53
2022/08/05 07:42:41;;;;;;;;;;;;;;;25.88;54.62;100797.16;7402662;19;1332;-59
2022/08/05 07:45:10;;;;;;;;;;;;;;;25.80;54.92;100779.94;7403589;19;1656;-57
2022/08/05 07:47:38;;;;;;;;;;;;;;;25.84;54.84;100787.69;7402247;19;1542;-58
2022/08/05 07:50:07;;;;;;;;;;;;;;;25.86;54.90;100800.03;7401189;19;1875;-57
2022/08/05 07:52:39;;;;;;;;;;;;;;;25.85;54.54;100800.22;7403338;19;1392;-58
2022/08/05 07:55:08;;;;;;;;;;;;;;;25.89;54.84;100804.28;7402095;19;1784;-59
2022/08/05 07:57:36;;;;;;;;;;;;;;;25.88;54.95;100787.16;7403443;19;1566;-56
2022/08/05 08:00:06;;;;;;;;;;;;;;;25.86;54.82;100791.91;7403637;19;1399;-59
2022/08/05 08:02:34;;;;;;;;;;;;;;;25.86;55.12;100791.91;7401064;19;1458;-58
2022/08/05 08:05:03;;;;;;;;;;;;;;;25.87;54.80;100790.91;7404452;19;1755;-51
2022/08/05 08:07:31;;;;;;;;;;;;;;;25.87;54.95;100800.91;7411035;19;1629;-50
2022/08/05 08:10:02;;;;;;;;;;;;;;;25.88;54.96;100797.16;7409098;19;1849;-51
2022/08/05 08:12:30;;;;;;;;;;;;;;;25.86;55.03;100799.19;7409546;19;1324;-51
2022/08/05 08:14:59;;;;;;;;;;;;;;;25.87;55.48;100795.47;7410050;19;1341;-51
2022/08/05 08:17:27;;;;;;;;;;;;;;;25.85;55.52;100786.69;7409492;19;1771;-52
2022/08/05 08:19:56;;;;;;;;;;;;;;;25.83;55.13;100802.28;7408279;19;1839;-51
2022/08/05 08:22:27;;;;;;;;;;;;;;;25.83;55.03;100788.75;7409000;19;1400;-54
2022/08/05 08:24:56;;;;;;;;;;;;;;;25.89;55.11;100799.69;7408959;19;1620;-54
2022/08/05 08:27:26;;;;;;;;;;;;;;;25.85;55.33;100792.09;7407889;19;1446;-56
2022/08/05 08:29:55;;;;;;;;;;;;;;;25.88;55.23;100797.97;7409217;19;1871;-57
2022/08/05 08:32:23;;;;;;;;;;;;;;;25.83;55.51;100797.69;7408872;19;1376;-52
2022/08/05 08:34:52;;;;;;;;;;;;;;;25.85;55.37;100786.69;7407601;19;1421;-57
2022/08/05 08:37:20;;;;;;;;;;;;;;;25.86;55.63;100789.19;7407427;19;1442;-57
2022/08/05 08:39:49;;;;;;;;;;;;;;;25.89;55.14;100778.00;7408734;19;1439;-50
2022/08/05 08:42:18;;;;;;;;;;;;;;;25.89;55.38;100777.19;7409227;19;1363;-50
2022/08/05 08:44:49;;;;;;;;;;;;;;;25.90;55.35;100784.25;7409372;19;1376;-50
2022/08/05 08:47:18;;;;;;;;;;;;;;;25.88;55.33;100765.47;7407984;19;1543;-57
2022/08/05 08:49:47;;;;;;;;;;;;;;;25.86;55.64;100756.69;7408254;19;1861;-58
2022/08/05 08:52:19;;;;;;;;;;;;;;;25.89;55.71;100771.75;7409116;19;1324;-58
2022/08/05 08:54:48;;;;;;;;;;;;;;;25.84;55.91;100755.19;7407177;19;1248;-56
2022/08/05 08:57:16;;;;;;;;;;;;;;;25.89;55.86;100766.34;7408263;19;1424;-58
2022/08/05 08:59:45;;;;;;;;;;;;;;;25.85;55.76;100770.44;7409587;19;1383;-57
2022/08/05 09:02:17;;;;;;;;;;;;;;;25.84;56.13;100755.19;7406797;19;1395;-58
2022/08/05 09:04:46;;;;;;;;;;;;;;;25.87;55.74;100752.13;7408165;19;1395;-52
2022/08/05 09:07:14;;;;;;;;;;;;;;;25.89;56.07;100750.09;7408422;19;1533;-52
2022/08/05 09:09:44;;;;;;;;;;;;;;;25.90;56.04;100760.75;7406632;19;1846;-52
2022/08/05 09:12:13;;;;;;;;;;;;;;;25.94;55.82;100780.19;7407712;19;1461;-56
2022/08/05 09:14:41;;;;;;;;;;;;;;;25.94;55.63;100766.66;7408378;19;1403;-53
2022/08/05 09:17:11;;;;;;;;;;;;;;;25.82;56.08;100749.13;7407918;19;1518;-53
2022/08/05 09:19:42;;;;;;;;;;;;;;;25.61;57.82;100747.91;7405882;19;1694;-53
2022/08/05 09:22:10;;;;;;;;;;;;;;;24.76;58.33;100754.06;7407946;19;1402;-53
2022/08/05 09:24:38;;;;;;;;;;;;;;;23.95;57.80;100740.47;7407081;19;1384;-53
2022/08/05 09:27:09;;;;;;;;;;;;;;;23.47;57.00;100741.22;7406943;19;1550;-52
2022/08/05 09:29:44;;;;;;;;;;;;;;;23.29;56.42;100738.66;7407970;19;1849;-53
2022/08/05 09:32:13;;;;;;;;;;;;;;;23.43;55.02;100746.94;7407604;19;1328;-53
2022/08/05 09:34:52;;;;;;;;;;;;;;;23.39;54.92;100751.00;7407379;19;1375;-52
2022/08/05 09:37:21;;;;;;;;;;;;;;;23.50;54.48;100739.06;7407368;19;1403;-53
2022/08/05 09:39:49;;;;;;;;;;;;;;;23.44;55.81;100753.22;7406984;19;1800;-52
2022/08/05 09:42:18;;;;;;;;;;;;;;;23.36;56.39;100753.19;7406373;19;1360;-53
2022/08/05 09:44:47;;;;;;;;;;;;;;;23.29;56.20;100744.91;7407481;19;1300;-52
2022/08/05 09:47:17;;;;;;;;;;;;;;;23.04;55.98;100744.00;7405685;19;1538;-53
2022/08/05 09:49:47;;;;;;;;;;;;;;;22.97;55.03;100734.81;7406719;19;1845;-52
2022/08/05 09:52:22;;;;;;;;;;;;;;;22.77;54.07;100750.41;7406694;19;1433;-53
2022/08/05 09:54:53;;;;;;;;;;;;;;;22.76;53.30;100748.69;7407462;19;1491;-53
2022/08/05 09:57:31;;;;;;;;;;;;;;;22.64;52.60;100735.53;7406144;19;1653;-52
2022/08/05 10:00:00;;;;;;;;;;;;;;;22.62;52.42;100729.44;7406440;19;1437;-53
2022/08/05 10:02:36;;;;;;;;;;;;;;;22.44;52.00;100723.25;7404592;19;1418;-53
2022/08/05 10:05:23;;;;;;;;;;;;;;;22.40;51.94;100721.88;7406748;19;1644;-53
2022/08/05 10:07:55;;;;;;;;;;;;;;;22.33;51.08;100715.47;7405782;19;1772;-53
2022/08/05 10:10:24;;;;;;;;;;;;;;;22.31;50.76;100725.53;7405180;19;1855;-52
2022/08/05 10:12:53;;;;;;;;;;;;;;;22.24;50.60;100718.09;7406534;19;1605;-52
2022/08/05 10:15:23;;;;;;;;;;;;;;;22.23;50.30;100724.44;7405891;19;1747;-52
2022/08/05 10:18:15;;;;;;;;;;;;;;;22.33;49.98;100718.16;7405300;19;1334;-52
2022/08/05 10:20:45;;;;;;;;;;;;;;;22.57;49.82;100723.69;7404842;19;2379;-52
2022/08/05 10:23:17;;;;;;;;;;;;;;;22.59;50.28;100710.03;7404769;19;1303;-52
2022/08/05 10:25:45;;;;;;;;;;;;;;;22.67;51.02;100720.03;7404534;19;1250;-53
2022/08/05 10:28:14;;;;;;;;;;;;;;;22.78;51.90;100706.25;7403698;19;1352;-52
2022/08/05 10:30:42;;;;;;;;;;;;;;;23.25;53.95;100705.75;7405880;19;1862;-52
2022/08/05 10:33:11;;;;;;;;;;;;;;;23.68;55.23;100709.22;7404272;19;1510;-53
2022/08/05 10:35:40;;;;;;;;;;;;;;;23.87;56.32;100701.81;7405215;19;1546;-52
2022/08/05 10:38:09;;;;;;;;;;;;;;;23.95;57.29;100691.00;7405863;19;1138;-53
2022/08/05 10:40:42;;;;;;;;;;;;;;;23.97;58.25;100679.03;7405452;19;1757;-53
2022/08/05 10:43:19;;;;;;;;;;;;;;;24.05;58.65;100691.66;7404465;19;1766;-53
2022/08/05 10:45:57;;;;;;;;;;;;;;;24.19;59.08;100693.69;7405189;19;1622;-52
2022/08/05 10:48:36;;;;;;;;;;;;;;;24.32;61.08;100687.75;7404907;19;1511;-53
2022/08/05 10:51:06;;;;;;;;;;;;;;;24.30;61.47;100686.25;7403429;19;1860;-53
2022/08/05 10:53:37;;;;;;;;;;;;;;;24.09;61.34;100676.78;7404700;19;1334;-53
2022/08/05 10:56:09;;;;;;;;;;;;;;;23.98;61.82;100663.66;7404460;19;1534;-52
2022/08/05 10:58:38;;;;;;;;;;;;;;;23.94;62.05;100660.47;7404274;19;1182;-53
2022/08/05 11:01:07;;;;;;;;;;;;;;;24.00;61.84;100659.78;7403758;19;1410;-53
2022/08/05 11:03:36;;;;;;;;;;;;;;;24.11;62.74;100660.41;7405506;19;1394;-53
2022/08/05 11:06:06;;;;;;;;;;;;;;;24.13;63.75;100651.16;7405079;19;1482;-53
2022/08/05 11:08:34;;;;;;;;;;;;;;;24.20;64.39;100656.69;7404173;19;1364;-53
2022/08/05 11:11:23;;;;;;;;;;;;;;;24.33;64.01;100657.00;7402910;19;1862;-53
2022/08/05 11:13:55;;;;;;;;;;;;;;;24.47;63.55;100652.75;7403013;19;2635;-53
2022/08/05 11:16:24;;;;;;;;;;;;;;;24.53;63.02;100649.38;7404102;19;1435;-53
2022/08/05 11:19:07;;;;;;;;;;;;;;;24.52;62.97;100655.78;7404612;19;1423;-53
2022/08/05 11:21:37;;;;;;;;;;;;;;;24.51;62.92;100627.06;7402563;19;1590;-54
2022/08/05 11:24:09;;;;;;;;;;;;;;;24.54;62.89;100656.44;7405485;19;989;-53
2022/08/05 11:26:37;;;;;;;;;;;;;;;24.49;63.15;100652.53;7404369;19;1415;-54
2022/08/05 11:29:09;;;;;;;;;;;;;;;24.54;62.91;100644.81;7403420;19;1424;-53
2022/08/05 11:31:37;;;;;;;;;;;;;;;24.55;63.00;100647.34;7402358;19;1857;-53
2022/08/05 11:34:07;;;;;;;;;;;;;;;24.63;63.18;100651.88;7404444;19;1147;-54
2022/08/05 11:36:51;;;;;;;;;;;;;;;24.59;63.12;100643.25;7403967;19;1680;-53
2022/08/05 11:39:34;;;;;;;;;;;;;;;24.52;63.27;100644.97;7407336;19;1317;-53
2022/08/05 11:42:03;;;;;;;;;;;;;;;24.59;63.08;100651.38;7410235;19;1383;-53
2022/08/05 11:44:40;;;;;;;;;;;;;;;24.56;63.52;100635.50;7410436;19;1257;-53
2022/08/05 11:47:09;;;;;;;;;;;;;;;24.50;63.59;100632.63;7410225;19;1295;-53
2022/08/05 11:49:37;;;;;;;;;;;;;;;24.57;63.25;100622.81;7411278;19;1245;-53
2022/08/05 11:52:06;;;;;;;;;;;;;;;24.53;63.35;100625.03;7407635;19;1844;-54
2022/08/05 11:54:36;;;;;;;;;;;;;;;24.54;63.16;100610.50;7410527;19;1348;-54
2022/08/05 11:57:07;;;;;;;;;;;;;;;24.64;62.76;100625.66;7410311;19;1621;-54
2022/08/05 11:59:35;;;;;;;;;;;;;;;24.64;63.00;100636.47;7410953;19;1763;-53
2022/08/05 12:02:07;;;;;;;;;;;;;;;24.75;62.45;100623.41;7408599;19;1383;-52
2022/08/05 12:04:40;;;;;;;;;;;;;;;25.08;61.99;100609.66;7411060;19;1405;-54
2022/08/05 12:07:09;;;;;;;;;;;;;;;25.27;60.79;100616.53;7410347;19;1596;-53
2022/08/05 12:09:39;;;;;;;;;;;;;;;25.38;60.39;100610.66;7408281;19;1204;-52
2022/08/05 12:12:07;;;;;;;;;;;;;;;25.43;61.23;100615.56;7407296;19;1865;-53
2022/08/05 12:14:40;;;;;;;;;;;;;;;25.45;60.89;100623.50;7410036;19;1214;-53
2022/08/05 12:17:11;;;;;;;;;;;;;;;25.49;60.22;100605.88;7410809;19;1600;-53
2022/08/05 12:19:43;;;;;;;;;;;;;;;25.52;60.83;100602.78;7407836;19;1403;-52
2022/08/05 12:22:12;;;;;;;;;;;;;;;25.56;60.59;100604.09;7409384;19;1355;-53
2022/08/05 12:24:44;;;;;;;;;;;;;;;25.59;60.20;100609.97;7409444;19;1292;-54
2022/08/05 12:27:20;;;;;;;;;;;;;;;25.56;60.90;100604.09;7409935;19;1335;-54
2022/08/05 12:29:59;;;;;;;;;;;;;;;25.58;60.81;100611.00;7411139;19;1013;-55
2022/08/05 12:32:30;;;;;;;;;;;;;;;25.58;60.36;100602.88;7405774;19;1854;-54
2022/08/05 12:34:58;;;;;;;;;;;;;;;25.63;60.73;100604.22;7409121;19;1470;-55
2022/08/05 12:37:27;;;;;;;;;;;;;;;25.68;60.22;100599.06;7408793;19;1736;-55
2022/08/05 12:39:57;;;;;;;;;;;;;;;25.69;60.66;100604.31;7409315;19;1427;-56
2022/08/05 12:42:30;;;;;;;;;;;;;;;25.68;60.30;100590.94;7409553;19;1416;-54
2022/08/05 12:45:03;;;;;;;;;;;;;;;25.70;59.97;100584.31;7410592;19;1010;-56
2022/08/05 12:47:34;;;;;;;;;;;;;;;25.75;60.33;100590.03;7406787;19;1588;-54
2022/08/05 12:50:02;;;;;;;;;;;;;;;25.71;60.36;100588.72;7407228;19;1435;-54
2022/08/05 12:52:31;;;;;;;;;;;;;;;25.75;60.36;100590.03;7404822;19;1846;-54
2022/08/05 12:54:59;;;;;;;;;;;;;;;25.74;60.00;100580.22;7408065;19;1213;-55
2022/08/05 12:57:36;;;;;;;;;;;;;;;25.77;60.35;100590.69;7407582;19;1348;-54
2022/08/05 13:00:05;;;;;;;;;;;;;;;25.77;60.11;100590.69;7409510;19;1062;-54
2022/08/05 13:02:37;;;;;;;;;;;;;;;25.80;59.49;100593.03;7405387;19;1565;-55
2022/08/05 13:05:07;;;;;;;;;;;;;;;25.86;59.49;100601.44;7406309;19;1334;-53
2022/08/05 13:07:36;;;;;;;;;;;;;;;25.83;58.88;100583.69;7407041;19;1344;-54